Time;durP1;ratioP1;P1;durP2;ratioP2;P2;SDS_P1;SDS_P2;PMS_P1;PMS_P2;Temp;Humidity;BMP_temperature;BMP_pressure;BME280_temperature;BME280_humidity;BME280_pressure;Samples;Min_cycle;Max_cycle;Signal;HPM_P1;HPM_P2
2021/11/09 00:00:41;;;;;;;24.50;14.67;;;;;;;6.88;100.00;100330.45;1755566;81;20998;-74
2021/11/09 00:03:10;;;;;;;24.80;14.63;;;;;;;6.86;100.00;100334.61;1746755;82;21594;-74
2021/11/09 00:05:48;;;;;;;25.07;15.43;;;;;;;6.86;100.00;100331.92;1746041;81;21054;-74
2021/11/09 00:08:12;;;;;;;25.67;15.67;;;;;;;6.86;100.00;100332.43;1778921;79;21019;-74
2021/11/09 00:10:35;;;;;;;25.63;14.97;;;;;;;6.87;100.00;100330.08;1820715;79;21002;-74
2021/11/09 00:13:03;;;;;;;25.13;15.20;;;;;;;6.83;100.00;100335.76;1817158;79;21551;-74
2021/11/09 00:15:32;;;;;;;25.40;15.07;;;;;;;6.82;100.00;100335.39;1811865;78;21018;-73
2021/11/09 00:18:02;;;;;;;24.60;15.23;;;;;;;6.81;100.00;100333.68;1818365;78;20986;-74
2021/11/09 00:20:32;;;;;;;25.13;14.67;;;;;;;6.83;100.00;100330.85;1821997;79;21025;-74
2021/11/09 00:23:00;;;;;;;25.07;15.30;;;;;;;6.83;100.00;100336.23;1821893;79;20985;-74
2021/11/09 00:25:28;;;;;;;23.10;15.00;;;;;;;6.83;100.00;100322.79;1816366;79;21064;-74
2021/11/09 00:27:54;;;;;;;25.07;15.17;;;;;;;6.79;100.00;100320.88;1818526;78;21063;-74
2021/11/09 00:30:23;;;;;;;23.70;14.13;;;;;;;6.77;100.00;100317.48;1788271;80;21029;-74
2021/11/09 00:32:50;;;;;;;23.53;13.93;;;;;;;6.79;100.00;100318.69;1811496;79;21061;-74
2021/11/09 00:35:20;;;;;;;24.13;14.93;;;;;;;6.79;100.00;100313.32;1825186;78;20978;-74
2021/11/09 00:37:47;;;;;;;24.33;15.07;;;;;;;6.78;100.00;100311.13;1819714;78;21020;-74
2021/11/09 00:40:15;;;;;;;26.60;15.03;;;;;;;6.78;100.00;100315.16;1827204;78;21041;-74
2021/11/09 00:42:42;;;;;;;24.17;14.60;;;;;;;6.77;100.00;100318.83;1817091;78;21555;-73
2021/11/09 00:45:10;;;;;;;24.47;14.00;;;;;;;6.77;100.00;100313.95;1814611;78;21040;-73
2021/11/09 00:47:36;;;;;;;24.97;15.00;;;;;;;6.75;100.00;100307.38;1822608;78;21005;-74
2021/11/09 00:50:05;;;;;;;26.77;16.30;;;;;;;6.76;100.00;100309.05;1814058;78;21013;-74
2021/11/09 00:52:33;;;;;;;25.60;15.43;;;;;;;6.76;100.00;100305.53;1823599;78;21014;-74
2021/11/09 00:55:00;;;;;;;26.50;15.63;;;;;;;6.77;100.00;100317.48;1787461;78;21001;-74
2021/11/09 00:57:27;;;;;;;25.67;16.13;;;;;;;6.75;100.00;100318.13;1762804;81;21049;-74
2021/11/09 00:59:55;;;;;;;27.33;16.23;;;;;;;6.73;100.00;100325.48;1749612;81;21023;-74
2021/11/09 01:02:22;;;;;;;26.40;15.83;;;;;;;6.72;100.00;100318.39;1733050;81;21081;-74
2021/11/09 01:04:48;;;;;;;26.33;16.17;;;;;;;6.71;100.00;100322.09;1751970;82;21025;-73
2021/11/09 01:07:15;;;;;;;23.70;14.73;;;;;;;6.70;100.00;100326.26;1756845;81;21448;-74
2021/11/09 01:09:42;;;;;;;27.37;16.23;;;;;;;6.68;100.00;100329.58;1762123;81;21038;-74
2021/11/09 01:12:10;;;;;;;23.63;14.77;;;;;;;6.65;100.00;100330.19;1748538;81;21074;-74
2021/11/09 01:14:40;;;;;;;22.90;14.37;;;;;;;6.64;100.00;100323.64;1781203;80;21552;-74
2021/11/09 01:17:07;;;;;;;24.97;14.47;;;;;;;6.64;100.00;100326.33;1785912;80;20963;-73
2021/11/09 01:19:34;;;;;;;23.90;14.70;;;;;;;6.62;100.00;100322.90;1743416;81;21051;-74
2021/11/09 01:22:02;;;;;;;26.27;16.37;;;;;;;6.60;100.00;100333.78;1751845;82;21054;-74
2021/11/09 01:24:28;;;;;;;24.77;15.13;;;;;;;6.60;100.00;100337.81;1752125;82;21003;-73
2021/11/09 01:26:55;;;;;;;24.47;15.30;;;;;;;6.59;100.00;100332.09;1751609;82;21566;-74
2021/11/09 01:29:22;;;;;;;23.27;14.37;;;;;;;6.58;100.00;100330.39;1751941;82;21066;-74
2021/11/09 01:31:50;;;;;;;24.20;15.00;;;;;;;6.55;100.00;100326.66;1746383;81;21035;-74
2021/11/09 01:34:17;;;;;;;23.53;14.40;;;;;;;6.54;100.00;100335.69;1751994;82;21103;-74
2021/11/09 01:36:43;;;;;;;25.30;15.03;;;;;;;6.54;100.00;100345.59;1752123;82;21019;-73
2021/11/09 01:39:10;;;;;;;23.30;14.77;;;;;;;6.53;100.00;100333.14;1752078;81;21032;-73
2021/11/09 01:41:37;;;;;;;26.03;15.00;;;;;;;6.52;100.00;100332.80;1751645;82;21038;-73
2021/11/09 01:44:04;;;;;;;25.90;15.77;;;;;;;6.52;100.00;100330.11;1746360;81;21047;-73
2021/11/09 01:46:32;;;;;;;25.50;15.83;;;;;;;6.52;100.00;100343.55;1750963;82;21051;-73
2021/11/09 01:48:59;;;;;;;25.20;15.53;;;;;;;6.51;100.00;100348.55;1749313;82;21038;-73
2021/11/09 01:51:26;;;;;;;29.43;16.17;;;;;;;6.48;100.00;100352.37;1748734;82;21017;-74
2021/11/09 01:53:54;;;;;;;25.33;14.70;;;;;;;6.49;100.00;100354.56;1746195;81;20994;-73
2021/11/09 01:56:22;;;;;;;26.53;15.20;;;;;;;6.50;100.00;100350.86;1726833;82;20992;-73
2021/11/09 01:58:49;;;;;;;27.70;16.53;;;;;;;6.49;100.00;100354.56;1748255;82;21028;-73
2021/11/09 02:01:18;;;;;;;29.57;16.17;;;;;;;6.48;100.00;100360.91;1753876;82;21017;-73
2021/11/09 02:03:48;;;;;;;25.73;15.17;;;;;;;6.44;100.00;100349.58;1751188;81;20998;-73
2021/11/09 02:06:15;;;;;;;27.30;15.63;;;;;;;6.45;100.00;100345.92;1756712;81;20981;-73
2021/11/09 02:08:43;;;;;;;26.17;14.97;;;;;;;6.45;100.00;100348.11;1776965;80;20978;-74
2021/11/09 02:11:10;;;;;;;25.83;15.87;;;;;;;6.43;100.00;100343.38;1784034;80;21116;-74
2021/11/09 02:13:38;;;;;;;27.00;16.70;;;;;;;6.41;100.00;100342.66;1787622;80;21022;-72
2021/11/09 02:16:05;;;;;;;28.33;16.90;;;;;;;6.40;100.00;100347.66;1792475;80;21010;-73
2021/11/09 02:18:33;;;;;;;24.67;15.13;;;;;;;6.39;100.00;100344.64;1785791;80;21017;-74
2021/11/09 02:21:06;;;;;;;25.17;15.50;;;;;;;6.40;100.00;100351.70;1771864;81;21508;-74
2021/11/09 02:23:33;;;;;;;;;;;;;;;6.41;100.00;100352.53;1776233;80;21014;-74
2021/11/09 02:26:00;;;;;;;24.27;15.77;;;;;;;6.41;100.00;100352.06;1772107;81;20133;-74
2021/11/09 02:28:28;;;;;;;28.43;16.23;;;;;;;6.41;100.00;100357.44;1784598;80;21503;-74
2021/11/09 02:30:55;;;;;;;26.83;15.63;;;;;;;6.41;100.00;100364.16;1787513;80;21031;-74
2021/11/09 02:33:21;;;;;;;25.27;15.27;;;;;;;6.40;100.00;100353.04;1782795;80;21046;-74
2021/11/09 02:35:48;;;;;;;26.87;15.20;;;;;;;6.39;100.00;100338.39;1785767;79;21034;-74
2021/11/09 02:38:15;;;;;;;24.87;15.73;;;;;;;6.39;100.00;100345.11;1772066;81;20999;-74
2021/11/09 02:40:42;;;;;;;26.70;15.47;;;;;;;6.41;100.00;100360.59;1772755;80;21488;-74
2021/11/09 02:43:12;;;;;;;25.97;16.43;;;;;;;6.40;100.00;100354.38;1792502;80;21547;-74
2021/11/09 02:46:25;;;;;;;23.97;15.07;;;;;;;6.40;100.00;100353.04;1792066;80;21061;-74
2021/11/09 02:48:44;;;;;;;24.47;14.80;;;;;;;6.39;100.00;100362.10;1781350;80;21026;-74
2021/11/09 02:51:11;;;;;;;28.23;16.53;;;;;;;6.36;100.00;100358.34;1769706;81;21006;-74
2021/11/09 02:53:42;;;;;;;23.93;14.57;;;;;;;6.35;100.00;100347.22;1773552;80;21073;-74
2021/11/09 02:56:22;;;;;;;26.77;15.23;;;;;;;6.33;100.00;100349.20;1751402;81;21002;-74
2021/11/09 03:01:26;;;;;;;25.97;15.30;;;;;;;6.32;100.00;100343.48;1782679;80;21057;-74
2021/11/09 03:06:36;;;;;;;27.90;15.97;;;;;;;6.28;100.00;100335.33;1781657;80;21014;-74
2021/11/09 03:09:19;;;;;;;28.17;15.93;;;;;;;6.26;100.00;100342.17;1754392;81;21050;-74
2021/11/09 03:14:20;;;;;;;25.30;15.97;;;;;;;6.25;100.00;100342.30;1682998;84;21067;-74
2021/11/09 03:16:46;;;;;;;26.33;16.03;;;;;;;6.23;100.00;100342.94;1684208;84;21039;-75
2021/11/09 03:46:38;;;;;;;29.07;18.13;;;;;;;5.82;100.00;100321.89;1657118;86;21018;-74
2021/11/09 03:49:06;;;;;;;31.93;20.80;;;;;;;5.80;100.00;100329.23;1664652;86;21039;-75
2021/11/09 03:51:34;;;;;;;30.67;19.23;;;;;;;5.76;100.00;100338.53;1666091;85;21118;-74
2021/11/09 03:54:04;;;;;;;31.53;19.80;;;;;;;5.71;100.00;100341.11;1660527;85;21107;-74
2021/11/09 03:59:02;;;;;;;31.50;18.90;;;;;;;5.63;100.00;100335.57;1644616;87;21054;-74
2021/11/09 04:01:38;;;;;;;34.67;21.87;;;;;;;5.60;100.00;100334.48;1643532;87;21077;-74
2021/11/09 04:06:42;;;;;;;35.27;22.37;;;;;;;5.53;100.00;100349.91;1643044;87;21038;-75
2021/11/09 04:11:48;;;;;;;36.00;20.80;;;;;;;5.46;100.00;100344.20;1582834;90;21134;-74
2021/11/09 04:19:49;;;;;;;38.60;23.00;;;;;;;5.31;100.00;100345.87;1596692;90;21143;-74
2021/11/09 04:27:41;;;;;;;36.50;22.70;;;;;;;5.15;100.00;100358.84;1536870;93;21056;-75
2021/11/09 04:30:30;;;;;;;35.97;22.10;;;;;;;5.10;100.00;100349.86;1527598;92;21108;-75
2021/11/09 04:53:52;;;;;;;40.10;24.00;;;;;;;5.01;100.00;100351.98;1588719;90;21048;-75
2021/11/09 05:02:02;;;;;;;38.13;24.83;;;;;;;5.06;100.00;100374.36;1662484;86;21078;-74
2021/11/09 05:10:03;;;;;;;36.83;22.60;;;;;;;5.10;100.00;100396.77;1692363;84;21513;-75
2021/11/09 05:12:27;;;;;;;41.23;23.77;;;;;;;5.14;100.00;100404.07;1693045;84;21059;-74
2021/11/09 05:14:54;;;;;;;38.43;21.77;;;;;;;5.18;100.00;100408.19;1696690;84;21173;-73
2021/11/09 05:17:22;;;;;;;38.57;21.70;;;;;;;5.23;100.00;100410.00;1660161;86;21082;-74
2021/11/09 05:19:50;;;;;;;34.57;20.87;;;;;;;5.28;100.00;100417.17;1696870;84;21064;-74
2021/11/09 05:22:17;;;;;;;39.53;24.70;;;;;;;5.32;100.00;100419.11;1705286;80;21046;-74
2021/11/09 05:24:45;;;;;;;34.57;20.73;;;;;;;5.35;100.00;100415.31;1731536;82;21024;-73
2021/11/09 05:27:15;;;;;;;31.67;18.93;;;;;;;5.38;100.00;100425.78;1735721;81;21134;-74
2021/11/09 05:29:40;;;;;;;33.03;19.20;;;;;;;5.42;100.00;100421.86;1737154;81;20951;-74
2021/11/09 05:32:08;;;;;;;30.87;18.87;;;;;;;5.46;100.00;100418.80;1736608;81;20967;-74
2021/11/09 05:34:35;;;;;;;31.50;18.67;;;;;;;5.50;100.00;100432.31;1733401;82;21515;-73
2021/11/09 05:37:03;;;;;;;32.20;19.50;;;;;;;5.55;100.00;100432.44;1731829;81;20984;-73
2021/11/09 05:39:33;;;;;;;34.43;20.17;;;;;;;5.59;100.00;100428.50;1734550;82;21128;-74
2021/11/09 05:42:14;;;;;;;;;;;;;;;;;;;;;
2021/11/09 05:44:34;;;;;;;34.53;20.57;;;;;;;5.65;100.00;100430.69;1758832;80;21112;-73
2021/11/09 05:47:01;;;;;;;54.37;35.07;;;;;;;5.67;100.00;100419.33;1769468;80;20962;-75
2021/11/09 05:49:28;;;;;;;37.23;22.03;;;;;;;5.69;100.00;100422.73;1763955;80;21527;-75
2021/11/09 05:51:55;;;;;;;38.13;22.60;;;;;;;5.73;100.00;100418.79;1724682;82;20965;-74
2021/11/09 05:54:22;;;;;;;36.03;22.03;;;;;;;5.76;100.00;100425.75;1713328;82;21006;-74
2021/11/09 05:56:49;;;;;;;38.40;21.43;;;;;;;5.82;100.00;100425.20;1712095;82;21009;-75
2021/11/09 05:59:16;;;;;;;37.77;20.60;;;;;;;5.88;100.00;100423.36;1701396;83;21057;-74
2021/11/09 06:01:43;;;;;;;37.50;21.00;;;;;;;5.93;100.00;100426.47;1729221;81;21063;-74
2021/11/09 06:04:09;;;;;;;36.97;22.03;;;;;;;5.97;100.00;100430.64;1731018;81;21006;-74
2021/11/09 06:06:37;;;;;;;37.60;22.43;;;;;;;6.00;100.00;100433.55;1729901;81;21555;-74
2021/11/09 06:09:04;;;;;;;38.47;22.40;;;;;;;6.06;100.00;100437.06;1734771;81;21030;-73
2021/11/09 06:11:31;;;;;;;38.93;21.63;;;;;;;6.08;100.00;100445.33;1752395;80;20987;-73
2021/11/09 06:13:58;;;;;;;35.10;20.10;;;;;;;6.13;100.00;100443.59;1720470;82;21022;-73
2021/11/09 06:16:25;;;;;;;40.97;22.47;;;;;;;6.15;100.00;100444.81;1736517;81;21540;-72
2021/11/09 06:18:51;;;;;;;38.63;24.67;;;;;;;6.18;100.00;100447.21;1725668;82;21050;-72
2021/11/09 06:21:19;;;;;;;38.03;23.90;;;;;;;6.20;100.00;100446.11;1732717;81;21025;-73
2021/11/09 06:23:45;;;;;;;43.03;26.63;;;;;;;6.21;100.00;100441.08;1698238;83;20967;-73
2021/11/09 06:26:12;;;;;;;43.07;27.07;;;;;;;6.23;100.00;100438.27;1723061;82;21151;-72
2021/11/09 06:28:40;;;;;;;40.70;24.57;;;;;;;6.26;100.00;100441.53;1748214;80;20982;-72
2021/11/09 06:31:07;;;;;;;50.10;35.97;;;;;;;6.31;100.00;100439.80;1749338;81;21023;-71
2021/11/09 06:33:34;;;;;;;44.50;32.70;;;;;;;6.35;100.00;100438.55;1752726;81;21049;-73
2021/11/09 06:36:01;;;;;;;44.37;29.13;;;;;;;6.41;100.00;100433.13;1728322;82;21010;-72
2021/11/09 06:38:27;;;;;;;60.97;37.43;;;;;;;6.45;100.00;100426.52;1728730;81;21020;-71
2021/11/09 06:40:54;;;;;;;68.57;47.03;;;;;;;6.50;100.00;100431.47;1734254;81;21033;-73
2021/11/09 06:43:22;;;;;;;56.83;37.63;;;;;;;6.52;100.00;100436.23;1728360;82;20991;-74
2021/11/09 06:45:56;;;;;;;46.43;30.43;;;;;;;6.56;100.00;100433.63;1739517;82;21039;-74
2021/11/09 06:48:21;;;;;;;57.17;41.93;;;;;;;6.58;100.00;100423.09;1722918;82;21474;-74
2021/11/09 06:50:48;;;;;;;43.03;28.33;;;;;;;6.62;100.00;100435.75;1731028;81;20987;-73
2021/11/09 06:53:15;;;;;;;37.27;23.60;;;;;;;6.63;100.00;100430.25;1734296;82;21013;-74
2021/11/09 06:55:44;;;;;;;54.93;34.40;;;;;;;6.67;100.00;100423.27;1727615;80;21007;-75
2021/11/09 06:58:11;;;;;;;41.47;29.10;;;;;;;6.72;100.00;100423.71;1748101;81;20971;-75
2021/11/09 07:00:38;;;;;;;45.43;33.73;;;;;;;6.78;100.00;100419.11;1748348;80;21053;-76
2021/11/09 07:03:05;;;;;;;38.10;25.13;;;;;;;6.84;100.00;100422.11;1752785;80;20962;-74
2021/11/09 07:05:31;;;;;;;40.23;24.13;;;;;;;6.92;100.00;100430.81;1728281;82;21002;-74
2021/11/09 07:07:58;;;;;;;37.53;22.80;;;;;;;7.00;100.00;100426.95;1739326;81;21536;-74
2021/11/09 07:10:25;;;;;;;35.70;21.10;;;;;;;7.09;100.00;100432.50;1740581;82;21150;-75
2021/11/09 07:12:53;;;;;;;32.73;21.40;;;;;;;7.12;100.00;100435.77;1728064;82;21493;-74
2021/11/09 07:15:22;;;;;;;35.57;22.20;;;;;;;7.16;100.00;100429.11;1722318;83;21120;-74
2021/11/09 07:17:50;;;;;;;33.60;21.10;;;;;;;7.22;100.00;100431.25;1725136;83;21039;-75
2021/11/09 07:20:19;;;;;;;34.00;20.10;;;;;;;7.28;100.00;100436.56;1724243;83;21470;-73
2021/11/09 07:22:47;;;;;;;32.70;17.27;;;;;;;7.33;100.00;100445.54;1718434;83;21094;-75
2021/11/09 07:25:14;;;;;;;26.83;15.20;;;;;;;7.38;100.00;100445.97;1723079;83;21045;-74
2021/11/09 07:27:43;;;;;;;28.83;17.50;;;;;;;7.41;100.00;100451.08;1720551;83;21004;-74
2021/11/09 07:30:23;;;;;;;28.50;15.70;;;;;;;7.43;100.00;100444.22;1720980;83;21067;-74
2021/11/09 07:33:01;;;;;;;25.57;14.03;;;;;;;7.48;100.00;100441.45;1733434;81;21006;-73
2021/11/09 07:35:31;;;;;;;21.10;11.37;;;;;;;7.53;100.00;100444.57;1611328;87;21604;-74
2021/11/09 07:37:58;;;;;;;19.70;10.27;;;;;;;7.56;100.00;100441.61;1584149;89;21111;-75
2021/11/09 07:40:25;;;;;;;23.73;14.00;;;;;;;7.58;100.00;100449.54;1578771;90;21076;-75
2021/11/09 07:42:52;;;;;;;25.13;15.23;;;;;;;7.59;100.00;100449.38;1580875;90;21152;-75
2021/11/09 07:45:21;;;;;;;24.00;13.97;;;;;;;7.62;100.00;100445.56;1575419;90;21155;-76
2021/11/09 07:47:49;;;;;;;23.30;14.50;;;;;;;7.65;100.00;100453.84;1587690;87;21063;-75
2021/11/09 07:50:16;;;;;;;24.80;14.37;;;;;;;7.66;100.00;100455.55;1586552;90;21514;-74
2021/11/09 07:52:50;;;;;;;29.60;15.50;;;;;;;7.68;100.00;100467.86;1623248;87;21025;-75
2021/11/09 07:55:20;;;;;;;30.93;18.67;;;;;;;7.68;100.00;100464.33;1621660;87;21566;-75
2021/11/09 07:57:53;;;;;;;29.83;20.57;;;;;;;7.70;100.00;100465.03;1634417;87;21141;-77
2021/11/09 08:05:34;;;;;;;17.90;9.80;;;;;;;7.75;100.00;100472.19;1511201;92;21165;-78
2021/11/09 08:08:05;;;;;;;20.70;10.70;;;;;;;7.81;100.00;100475.67;1481913;96;21177;-77
2021/11/09 08:10:26;;;;;;;16.43;8.23;;;;;;;7.90;100.00;100472.11;1457280;97;21072;-77
2021/11/09 08:12:54;;;;;;;19.30;10.10;;;;;;;7.97;100.00;100461.13;1446002;98;22477;-77
2021/11/09 08:15:21;;;;;;;17.73;9.27;;;;;;;7.97;100.00;100465.67;1498373;95;21605;-76
2021/11/09 08:17:49;;;;;;;19.53;11.87;;;;;;;7.95;100.00;100468.50;1504906;95;21140;-76
2021/11/09 08:20:18;;;;;;;31.13;15.53;;;;;;;7.95;100.00;100465.81;1481758;95;21108;-76
2021/11/09 08:22:46;;;;;;;46.20;25.80;;;;;;;7.96;100.00;100458.56;1498760;95;21108;-74
2021/11/09 08:25:13;;;;;;;60.07;29.20;;;;;;;7.99;100.00;100459.12;1475791;95;21148;-75
2021/11/09 08:27:41;;;;;;;21.43;11.53;;;;;;;8.04;100.00;100456.49;1508361;94;21117;-73
2021/11/09 08:30:10;;;;;;;16.60;9.20;;;;;;;8.07;100.00;100468.33;1516580;94;21562;-74
2021/11/09 08:32:38;;;;;;;17.00;9.70;;;;;;;8.08;100.00;100476.77;1493222;93;21093;-75
2021/11/09 08:35:06;;;;;;;19.77;10.43;;;;;;;8.09;100.00;100481.15;1526975;93;21075;-76
2021/11/09 08:37:34;;;;;;;15.77;8.40;;;;;;;8.11;100.00;100471.95;1522826;93;21109;-74
2021/11/09 08:40:04;;;;;;;19.07;12.07;;;;;;;8.15;100.00;100481.43;1604672;87;21078;-74
2021/11/09 08:42:37;;;;;;;32.43;23.73;;;;;;;8.22;100.00;100479.02;1615329;87;21059;-74
2021/11/09 08:45:21;;;;;;;24.23;15.10;;;;;;;8.30;100.00;100483.16;1635227;87;21074;-75
2021/11/09 08:47:42;;;;;;;28.60;16.43;;;;;;;8.35;100.00;100486.78;1614860;87;21077;-75
2021/11/09 08:50:08;;;;;;;23.53;13.50;;;;;;;8.35;100.00;100480.04;1645854;85;21062;-76
2021/11/09 08:52:35;;;;;;;19.70;11.60;;;;;;;8.36;100.00;100467.77;1648852;85;21105;-75
2021/11/09 08:55:18;;;;;;;13.93;7.50;;;;;;;8.47;100.00;100474.86;1648684;84;21126;-77
2021/11/09 09:06:04;;;;;;;27.83;15.57;;;;;;;8.81;100.00;100468.06;1666793;84;21065;-75
2021/11/09 09:08:33;;;;;;;35.23;15.00;;;;;;;8.70;100.00;100459.67;1676734;84;21002;-76
2021/11/09 09:11:07;;;;;;;19.57;12.20;;;;;;;8.71;100.00;100459.53;1684173;84;21041;-77
2021/11/09 09:13:36;;;;;;;16.20;7.80;;;;;;;8.88;100.00;100467.30;1680781;84;21074;-74
2021/11/09 09:16:04;;;;;;;14.97;7.13;;;;;;;9.01;100.00;100463.41;1690449;83;21551;-75
2021/11/09 09:18:31;;;;;;;14.23;7.23;;;;;;;9.04;100.00;100472.56;1650529;85;21050;-74
2021/11/09 09:23:35;;;;;;;17.50;8.18;;;;;;;8.81;100.00;100470.76;1618982;87;21057;-73
2021/11/09 09:26:25;;;;;;;;;;;;;;;;;;;;;
2021/11/09 09:56:06;;;;;;;15.53;7.43;;;;;;;8.42;100.00;100497.35;1479225;93;21114;-75
2021/11/09 09:58:31;;;;;;;13.00;6.30;;;;;;;8.47;100.00;100493.72;1494422;94;21266;-73
2021/11/09 10:00:58;;;;;;;9.27;5.20;;;;;;;8.63;100.00;100493.11;1530625;92;21154;-73
2021/11/09 10:03:34;;;;;;;10.63;5.43;;;;;;;8.75;100.00;100492.44;1551995;91;21065;-72
2021/11/09 10:06:03;;;;;;;22.97;10.40;;;;;;;8.79;100.00;100487.08;1508168;93;21151;-73
2021/11/09 10:08:49;;;;;;;21.70;12.70;;;;;;;8.83;100.00;100479.03;1465615;95;21714;-72
2021/11/09 10:11:36;;;;;;;13.03;6.40;;;;;;;8.91;100.00;100475.11;1452803;97;21173;-71
2021/11/09 10:14:06;;;;;;;48.00;28.87;;;;;;;9.00;100.00;100473.87;1446700;97;21097;-72
2021/11/09 10:16:38;;;;;;;15.67;8.80;;;;;;;9.10;100.00;100461.15;1461649;97;21585;-72
2021/11/09 10:19:05;;;;;;;17.57;9.23;;;;;;;9.23;100.00;100472.44;1466278;95;21648;-72
2021/11/09 10:21:38;;;;;;;13.83;7.80;;;;;;;9.23;100.00;100475.65;1511110;92;21092;-72
2021/11/09 10:24:29;;;;;;;15.07;8.07;;;;;;;9.13;100.00;100464.39;1539683;91;21106;-69
2021/11/09 10:27:11;;;;;;;17.50;9.35;;;;;;;9.01;100.00;100475.07;1496430;91;21633;-67
2021/11/09 10:29:39;;;;;;;14.33;7.73;;;;;;;8.89;100.00;100477.11;1544389;91;21077;-68
2021/11/09 10:32:12;;;;;;;22.57;12.43;;;;;;;8.87;100.00;100462.93;1562065;90;21037;-73
2021/11/09 10:34:39;;;;;;;7.75;4.87;;;;;;;8.94;100.00;100468.55;1575426;90;21151;-72
2021/11/09 10:37:26;;;;;;;12.40;6.90;;;;;;;9.05;100.00;100466.17;1572534;90;21167;-70
2021/11/09 10:39:55;;;;;;;6.53;3.67;;;;;;;9.18;100.00;100470.70;1561147;90;21174;-70
2021/11/09 10:42:25;;;;;;;10.73;5.50;;;;;;;9.24;100.00;100482.72;1560212;91;21097;-70
2021/11/09 10:44:58;;;;;;;12.93;6.10;;;;;;;9.13;100.00;100490.02;1582908;90;21467;-71
2021/11/09 10:47:34;;;;;;;10.40;5.37;;;;;;;9.07;100.00;100483.89;1533667;92;21145;-69
2021/11/09 10:50:23;;;;;;;9.60;5.20;;;;;;;8.97;100.00;100481.74;1527663;93;21086;-69
2021/11/09 10:53:18;;;;;;;9.53;5.33;;;;;;;8.87;100.00;100480.94;1532695;93;21155;-70
2021/11/09 10:56:31;;;;;;;7.35;3.90;;;;;;;8.83;100.00;100479.55;1554580;91;21013;-71
2021/11/09 11:04:00;;;;;;;5.77;3.60;;;;;;;8.98;100.00;100473.14;1464370;98;21099;-70
2021/11/09 11:06:30;;;;;;;6.87;3.80;;;;;;;8.77;100.00;100481.50;1446606;98;21192;-70
2021/11/09 11:09:03;;;;;;;6.47;3.87;;;;;;;8.60;100.00;100481.27;1481026;96;21096;-68
2021/11/09 11:11:40;;;;;;;4.97;3.50;;;;;;;8.50;100.00;100481.81;1479157;96;21147;-69
2021/11/09 11:14:29;;;;;;;5.27;3.73;;;;;;;8.43;100.00;100492.33;1542267;92;21127;-69
2021/11/09 11:17:06;;;;;;;7.73;4.23;;;;;;;8.41;100.00;100488.03;1503102;94;21656;-69
2021/11/09 11:19:49;;;;;;;9.73;5.40;;;;;;;8.36;100.00;100493.37;1503391;95;21086;-69
2021/11/09 11:22:24;;;;;;;7.60;4.10;;;;;;;8.35;100.00;100496.20;1484315;96;21157;-71
2021/11/09 11:24:52;;;;;;;6.50;3.80;;;;;;;8.33;100.00;100492.81;1522523;92;21120;-71
2021/11/09 11:27:20;;;;;;;5.50;3.33;;;;;;;8.27;100.00;100513.11;1478667;94;21061;-72
2021/11/09 11:29:47;;;;;;;9.63;4.93;;;;;;;8.16;100.00;100515.94;1532560;92;21625;-69
2021/11/09 11:32:23;;;;;;;5.30;3.60;;;;;;;8.03;100.00;100514.06;1533924;92;21146;-69
2021/11/09 11:34:51;;;;;;;4.83;3.40;;;;;;;7.92;100.00;100526.67;1537351;90;21090;-69
2021/11/09 11:37:18;;;;;;;21.00;9.80;;;;;;;7.84;100.00;100529.21;1556699;90;21098;-70
2021/11/09 11:39:47;;;;;;;8.83;4.17;;;;;;;7.78;100.00;100528.45;1528907;90;21123;-70
2021/11/09 11:42:16;;;;;;;15.57;8.93;;;;;;;7.76;100.00;100527.23;1537697;91;21052;-71
2021/11/09 11:44:43;;;;;;;9.07;5.30;;;;;;;7.77;100.00;100530.77;1549660;91;21077;-72
2021/11/09 11:49:50;;;;;;;6.87;4.00;;;;;;;7.67;100.00;100533.47;1500326;93;21529;-72
2021/11/09 11:52:34;;;;;;;8.77;5.30;;;;;;;7.58;100.00;100535.66;1487793;93;21080;-70
2021/11/09 11:55:25;;;;;;;12.97;6.83;;;;;;;7.49;100.00;100537.34;1497172;93;21046;-70
2021/11/09 11:58:13;;;;;;;10.23;5.77;;;;;;;7.46;100.00;100546.19;1520263;93;21044;-69
2021/11/09 12:00:55;;;;;;;6.97;3.50;;;;;;;7.39;100.00;100540.50;1526302;93;21156;-69
2021/11/09 12:03:27;;;;;;;24.77;12.80;;;;;;;7.30;100.00;100542.18;1525556;93;21646;-69
2021/11/09 12:05:57;;;;;;;29.40;18.93;;;;;;;7.33;100.00;100550.45;1541302;92;21124;-70
2021/11/09 12:08:37;;;;;;;10.73;4.90;;;;;;;7.39;100.00;100549.42;1505440;93;21105;-71
2021/11/09 12:11:26;;;;;;;16.97;9.27;;;;;;;7.42;100.00;100549.66;1483247;94;21150;-68
2021/11/09 12:13:58;;;;;;;8.10;4.07;;;;;;;7.41;100.00;100554.66;1495823;95;21107;-69
2021/11/09 12:16:52;;;;;;;24.33;15.27;;;;;;;7.36;100.00;100558.26;1538220;91;21603;-70
2021/11/09 12:19:43;;;;;;;36.28;24.30;;;;;;;7.29;100.00;100559.80;1562465;90;21066;-69
2021/11/09 12:22:16;;;;;;;43.07;24.30;;;;;;;7.27;100.00;100566.66;1626113;87;21074;-70
2021/11/09 12:24:57;;;;;;;22.50;12.47;;;;;;;7.31;100.00;100571.27;1651521;87;21653;-69
2021/11/09 12:27:48;;;;;;;25.33;15.67;;;;;;;7.29;100.00;100569.21;1649154;86;21062;-68
2021/11/09 12:30:40;;;;;;;29.37;19.73;;;;;;;7.22;100.00;100567.55;1645963;87;21011;-69
2021/11/09 12:33:16;;;;;;;18.53;10.13;;;;;;;7.13;100.00;100570.56;1652575;86;21066;-69
2021/11/09 12:35:45;;;;;;;21.10;12.70;;;;;;;7.05;100.00;100566.37;1647037;86;21007;-70
2021/11/09 12:38:19;;;;;;;24.93;15.90;;;;;;;6.96;100.00;100561.82;1653963;87;21686;-68
2021/11/09 12:40:51;;;;;;;22.47;10.97;;;;;;;6.84;100.00;100571.80;1644736;86;21127;-69
2021/11/09 12:43:32;;;;;;;13.43;6.73;;;;;;;6.75;100.00;100588.23;1636173;87;21247;-71
2021/11/09 12:46:25;;;;;;;10.00;4.47;;;;;;;6.68;100.00;100591.09;1659368;83;21059;-68
2021/11/09 12:49:09;;;;;;;8.10;5.40;;;;;;;6.61;100.00;100595.30;1719973;83;21126;-68
2021/11/09 12:51:54;;;;;;;5.77;3.87;;;;;;;6.53;100.00;100585.69;1736043;81;21037;-68
2021/11/09 12:54:29;;;;;;;5.63;4.07;;;;;;;6.44;100.00;100595.38;1738306;81;21077;-68
2021/11/09 12:57:06;;;;;;;8.80;4.00;;;;;;;6.35;100.00;100597.02;1723212;82;21050;-68
2021/11/09 12:59:41;;;;;;;19.67;12.23;;;;;;;6.25;100.00;100591.59;1730739;81;21047;-69
2021/11/09 13:07:39;;;;;;;16.97;6.90;;;;;;;6.08;100.00;100610.44;1638185;84;21589;-67
2021/11/09 13:10:23;;;;;;;19.00;7.77;;;;;;;6.05;100.00;100604.48;1649719;84;21062;-72
2021/11/09 13:12:52;;;;;;;11.13;4.87;;;;;;;6.01;100.00;100604.38;1646756;86;21054;-71
2021/11/09 13:15:21;;;;;;;18.77;7.47;;;;;;;5.97;100.00;100615.02;1649802;85;21109;-67
2021/11/09 13:18:03;;;;;;;17.63;7.70;;;;;;;5.91;100.00;100613.64;1646003;86;21077;-71
2021/11/09 13:23:11;;;;;;;7.40;4.00;;;;;;;5.81;100.00;100620.77;1642984;85;20994;-70
2021/11/09 13:25:46;;;;;;;7.50;3.20;;;;;;;5.79;100.00;100628.07;1670885;84;21410;-69
2021/11/09 13:28:19;;;;;;;4.53;2.87;;;;;;;5.76;100.00;100635.05;1673487;84;21037;-69
2021/11/09 13:30:54;;;;;;;4.37;3.30;;;;;;;5.74;100.00;100636.98;1672269;84;21152;-69
2021/11/09 13:33:22;;;;;;;;;;;;;;;5.72;100.00;100642.50;1659303;84;21586;-69
2021/11/09 13:35:49;;;;;;;8.07;4.13;;;;;;;5.73;100.00;100646.03;1668211;84;20486;-71
2021/11/09 13:38:29;;;;;;;8.03;5.20;;;;;;;5.73;100.00;100648.72;1648824;84;21038;-70
2021/11/09 13:41:01;;;;;;;18.00;7.90;;;;;;;5.75;100.00;100660.17;1650439;85;21093;-71
2021/11/09 13:43:37;;;;;;;24.17;12.00;;;;;;;5.71;100.00;100670.30;1696796;84;21013;-70
2021/11/09 13:46:11;;;;;;;12.47;4.67;;;;;;;5.68;100.00;100671.42;1701884;84;21543;-72
2021/11/09 13:48:43;;;;;;;11.23;4.93;;;;;;;5.61;100.00;100666.65;1688523;84;21027;-71
2021/11/09 13:51:13;;;;;;;14.73;7.50;;;;;;;5.52;100.00;100669.58;1689979;84;21582;-71
2021/11/09 13:53:47;;;;;;;25.23;8.70;;;;;;;5.42;100.00;100674.84;1674294;84;21053;-71
2021/11/09 13:56:19;;;;;;;11.50;6.07;;;;;;;5.35;100.00;100675.43;1666861;84;21596;-71
2021/11/09 13:59:04;;;;;;;16.80;7.97;;;;;;;5.27;100.00;100676.89;1650457;84;21062;-71